Time;durP1;ratioP1;P1;durP2;ratioP2;P2;SDS_P1;SDS_P2;PMS_P1;PMS_P2;Temp;Humidity;BMP_temperature;BMP_pressure;BME280_temperature;BME280_humidity;BME280_pressure;Samples;Min_cycle;Max_cycle;Signal;HPM_P1;HPM_P2
2022/09/05 00:02:02;;;;;;;4.45;3.00;;;19.00;92.60;;;;;;5036503;28;20045;-61
2022/09/05 00:04:37;;;;;;;5.18;3.40;;;19.00;92.50;;;;;;5014115;28;20045;-61
2022/09/05 00:07:22;;;;;;;6.43;3.85;;;18.90;92.70;;;;;;5038931;28;20091;-67
2022/09/05 00:10:08;;;;;;;5.78;3.40;;;18.90;93.40;;;;;;5031326;28;20080;-66
2022/09/05 00:12:36;;;;;;;5.53;3.65;;;18.90;93.50;;;;;;5036302;28;20082;-61
2022/09/05 00:15:34;;;;;;;5.47;3.83;;;18.80;93.40;;;;;;5001812;28;20052;-60
2022/09/05 00:18:13;;;;;;;6.03;3.97;;;18.80;93.90;;;;;;5030755;28;20129;-61
2022/09/05 00:20:57;;;;;;;6.18;3.95;;;18.70;93.90;;;;;;5029614;28;20195;-66
2022/09/05 00:23:49;;;;;;;5.97;3.83;;;18.70;94.60;;;;;;5034802;28;20089;-67
2022/09/05 00:27:10;;;;;;;5.85;4.00;;;18.70;94.40;;;;;;5025722;28;20514;-67
2022/09/05 00:29:39;;;;;;;6.10;3.97;;;18.70;95.20;;;;;;4995167;28;20057;-67
2022/09/05 00:32:24;;;;;;;5.35;3.90;;;18.60;94.70;;;;;;5027711;28;20053;-67
2022/09/05 00:34:59;;;;;;;6.38;3.78;;;18.60;95.00;;;;;;5048101;28;20782;-67
2022/09/05 00:37:32;;;;;;;6.85;3.92;;;18.50;95.30;;;;;;5031469;28;20492;-61
2022/09/05 00:40:31;;;;;;;5.68;3.85;;;18.50;95.40;;;;;;5032427;28;20583;-67
2022/09/05 00:43:03;;;;;;;5.45;3.72;;;18.40;96.20;;;;;;5016300;28;20052;-67
2022/09/05 00:45:42;;;;;;;4.80;3.78;;;18.40;96.00;;;;;;5019294;28;20547;-67
2022/09/05 00:48:17;;;;;;;5.65;3.60;;;18.40;96.40;;;;;;5020029;28;20357;-67
2022/09/05 00:51:19;;;;;;;7.03;4.00;;;18.30;96.60;;;;;;5031031;28;20041;-67
2022/09/05 00:54:01;;;;;;;;;;;18.30;97.00;;;;;;5044213;28;20376;-67
2022/09/05 00:57:01;;;;;;;8.90;4.43;;;18.30;97.00;;;;;;5032198;28;19926;-67
2022/09/05 00:59:33;;;;;;;9.23;5.43;;;18.20;97.70;;;;;;5029887;28;20045;-67
2022/09/05 01:02:13;;;;;;;6.75;4.18;;;18.20;97.10;;;;;;5035285;28;20048;-66
2022/09/05 01:05:03;;;;;;;8.43;4.28;;;18.30;97.70;;;;;;5011534;28;20041;-66
2022/09/05 01:08:06;;;;;;;6.30;4.20;;;18.20;97.90;;;;;;5032838;28;20257;-66
2022/09/05 01:11:00;;;;;;;7.13;4.50;;;18.20;98.40;;;;;;5032273;28;20411;-66
2022/09/05 01:14:08;;;;;;;6.13;4.45;;;18.20;98.60;;;;;;5034909;28;20041;-66
2022/09/05 01:16:53;;;;;;;5.85;4.40;;;18.10;98.60;;;;;;5032399;28;20458;-66
2022/09/05 01:19:56;;;;;;;5.90;4.18;;;18.10;98.90;;;;;;5036713;28;20129;-66
2022/09/05 01:22:41;;;;;;;6.88;4.45;;;18.00;99.20;;;;;;5031553;28;20036;-66
2022/09/05 01:25:37;;;;;;;8.27;4.00;;;18.00;99.00;;;;;;5029627;28;20624;-67
2022/09/05 01:28:17;;;;;;;5.60;4.22;;;18.00;99.30;;;;;;5027251;28;20050;-60
2022/09/05 01:30:49;;;;;;;7.22;4.80;;;17.90;99.50;;;;;;5035987;28;20050;-60
2022/09/05 01:33:14;;;;;;;;;;;17.90;99.50;;;;;;5011008;28;20472;-60
2022/09/05 01:35:59;;;;;;;6.38;4.35;;;17.80;99.90;;;;;;5044459;28;19924;-60
2022/09/05 01:38:31;;;;;;;9.32;5.13;;;17.90;99.60;;;;;;5028499;28;20056;-60
2022/09/05 01:41:32;;;;;;;;;;;17.80;99.80;;;;;;5033661;28;20049;-60
2022/09/05 01:43:58;;;;;;;6.35;4.75;;;17.80;99.90;;;;;;5026491;28;20176;-67
2022/09/05 01:46:43;;;;;;;5.03;4.28;;;17.80;99.90;;;;;;5012153;28;20061;-66
2022/09/05 01:49:31;;;;;;;9.88;4.90;;;17.70;99.90;;;;;;5032807;28;20100;-67
2022/09/05 01:52:26;;;;;;;7.13;4.78;;;17.70;99.90;;;;;;5047968;28;20577;-67
2022/09/05 01:55:10;;;;;;;7.53;4.97;;;17.70;99.90;;;;;;5010409;28;20049;-66
2022/09/05 01:57:39;;;;;;;9.25;5.20;;;17.70;99.90;;;;;;5031432;28;20755;-67
2022/09/05 02:00:11;;;;;;;11.20;5.05;;;17.60;99.90;;;;;;5031623;28;20049;-66
2022/09/05 02:03:02;;;;;;;8.43;5.25;;;17.60;99.90;;;;;;5043882;28;20065;-66
2022/09/05 02:06:00;;;;;;;7.80;4.63;;;17.60;99.90;;;;;;5030596;28;20049;-66
2022/09/05 02:08:55;;;;;;;8.75;5.07;;;17.50;99.90;;;;;;5030409;28;20061;-66
2022/09/05 02:11:39;;;;;;;6.65;5.07;;;17.50;99.90;;;;;;5030031;28;20136;-67
2022/09/05 02:14:41;;;;;;;5.90;4.95;;;17.50;99.90;;;;;;5049894;28;20144;-67
2022/09/05 02:17:26;;;;;;;6.50;5.20;;;17.50;99.90;;;;;;5027330;28;20419;-67
2022/09/05 02:20:19;;;;;;;7.15;5.18;;;17.50;99.90;;;;;;5013030;28;20318;-66
2022/09/05 02:22:52;;;;;;;7.35;5.22;;;17.40;99.90;;;;;;5032033;28;20045;-60
2022/09/05 02:25:24;;;;;;;6.03;5.43;;;17.40;99.90;;;;;;5028593;28;20054;-60
2022/09/05 02:28:10;;;;;;;7.53;5.60;;;17.40;99.90;;;;;;5033855;28;20064;-61
2022/09/05 02:30:43;;;;;;;7.18;5.35;;;17.30;99.90;;;;;;5035400;28;20421;-60
2022/09/05 02:33:27;;;;;;;6.57;5.85;;;17.30;99.90;;;;;;5030682;28;20079;-61
2022/09/05 02:36:17;;;;;;;8.30;6.55;;;17.30;99.90;;;;;;5032559;28;20428;-61
2022/09/05 02:38:46;;;;;;;7.28;5.85;;;17.30;99.90;;;;;;4995520;28;20119;-61
2022/09/05 02:41:15;;;;;;;7.57;5.38;;;17.20;99.90;;;;;;5028600;28;20144;-61
2022/09/05 02:43:44;;;;;;;9.93;6.05;;;17.20;99.90;;;;;;5015138;28;20055;-61
2022/09/05 02:46:29;;;;;;;8.27;5.75;;;17.10;99.90;;;;;;5026901;28;20060;-62
2022/09/05 02:48:55;;;;;;;7.88;6.10;;;17.10;99.90;;;;;;5026977;28;20041;-61
2022/09/05 02:51:24;;;;;;;8.93;6.18;;;17.10;99.90;;;;;;5032304;28;20088;-63
2022/09/05 02:54:15;;;;;;;6.28;5.63;;;17.00;99.90;;;;;;5026256;28;20387;-61
2022/09/05 02:56:53;;;;;;;6.72;6.03;;;17.00;99.90;;;;;;5011355;28;20493;-61
2022/09/05 02:59:44;;;;;;;6.78;6.13;;;17.00;99.90;;;;;;5027789;28;20739;-62
2022/09/05 03:02:52;;;;;;;7.32;5.97;;;17.00;99.90;;;;;;5026041;28;20049;-61
2022/09/05 03:05:31;;;;;;;8.50;6.35;;;17.00;99.90;;;;;;5031936;28;20510;-68
2022/09/05 03:08:34;;;;;;;6.72;5.97;;;16.90;99.90;;;;;;5025923;28;20119;-68
2022/09/05 03:11:22;;;;;;;9.18;6.22;;;16.90;99.90;;;;;;5039519;28;20275;-67
2022/09/05 03:14:05;;;;;;;6.47;5.82;;;16.90;99.90;;;;;;5029434;28;20319;-67
2022/09/05 03:16:56;;;;;;;8.40;6.35;;;16.80;99.90;;;;;;5012525;28;20083;-68
2022/09/05 03:19:43;;;;;;;7.15;6.45;;;16.80;99.90;;;;;;5026424;28;20504;-68
2022/09/05 03:22:43;;;;;;;7.30;6.60;;;16.80;99.90;;;;;;5031891;28;20045;-61
2022/09/05 03:25:45;;;;;;;7.38;6.68;;;16.70;99.90;;;;;;5032492;28;20633;-60
2022/09/05 03:28:54;;;;;;;7.15;6.43;;;16.70;99.90;;;;;;5043488;28;20055;-61
2022/09/05 03:32:01;;;;;;;8.38;6.70;;;16.70;99.90;;;;;;4987605;28;20061;-61
2022/09/05 03:35:03;;;;;;;11.60;6.93;;;16.70;99.90;;;;;;5026804;28;20118;-61
2022/09/05 03:38:02;;;;;;;7.88;6.93;;;16.60;99.90;;;;;;5010123;28;20049;-65
2022/09/05 03:40:43;;;;;;;7.80;7.07;;;16.60;99.90;;;;;;5044143;28;20458;-61
2022/09/05 03:43:29;;;;;;;8.63;6.80;;;16.50;99.90;;;;;;5027845;28;20052;-62
2022/09/05 03:46:20;;;;;;;7.38;6.60;;;16.50;99.90;;;;;;5045496;28;20080;-61
2022/09/05 03:49:22;;;;;;;8.10;7.30;;;16.50;99.90;;;;;;5031928;28;20050;-62
2022/09/05 03:51:56;;;;;;;8.57;7.00;;;16.50;99.90;;;;;;5038352;28;20453;-61
2022/09/05 03:54:52;;;;;;;7.85;7.05;;;16.40;99.90;;;;;;5013308;28;20048;-61
2022/09/05 03:57:37;;;;;;;10.63;6.90;;;16.40;99.90;;;;;;5040453;28;20163;-61
2022/09/05 04:00:08;;;;;;;10.55;7.30;;;16.40;99.90;;;;;;5033495;28;20044;-61
2022/09/05 04:02:45;;;;;;;8.63;6.90;;;16.30;99.90;;;;;;5048989;28;20627;-61
2022/09/05 04:05:19;;;;;;;9.10;7.50;;;16.30;99.90;;;;;;5034870;28;20549;-61
2022/09/05 04:08:00;;;;;;;8.10;7.28;;;16.30;99.90;;;;;;5027843;28;20431;-61
2022/09/05 04:11:04;;;;;;;8.50;7.57;;;16.20;99.90;;;;;;5030730;28;20047;-61
2022/09/05 04:13:39;;;;;;;10.02;7.85;;;16.30;99.90;;;;;;5050940;28;20044;-68
2022/09/05 04:16:16;;;;;;;9.85;7.78;;;16.30;99.90;;;;;;5041016;28;20045;-67
2022/09/05 04:19:09;;;;;;;8.20;7.47;;;16.20;99.90;;;;;;5030938;28;20046;-68
2022/09/05 04:21:44;;;;;;;8.82;7.97;;;16.20;99.90;;;;;;5046169;28;20537;-61
2022/09/05 04:24:37;;;;;;;10.10;7.65;;;16.20;99.90;;;;;;5028796;28;20533;-61
2022/09/05 04:27:15;;;;;;;9.32;7.63;;;16.20;99.90;;;;;;5034959;28;20059;-61
2022/09/05 04:30:03;;;;;;;8.52;7.70;;;16.20;99.90;;;;;;5037506;28;20250;-61
2022/09/05 04:32:46;;;;;;;8.55;6.90;;;16.20;99.90;;;;;;5034649;28;20048;-60
2022/09/05 04:35:28;;;;;;;9.68;8.68;;;16.10;99.90;;;;;;5041125;28;20064;-60
2022/09/05 04:38:03;;;;;;;10.25;8.25;;;16.10;99.90;;;;;;5034189;28;20124;-67
2022/09/05 04:40:38;;;;;;;8.75;7.80;;;16.10;99.90;;;;;;5034148;28;20120;-67
2022/09/05 04:43:17;;;;;;;9.32;7.97;;;16.10;99.90;;;;;;5046785;28;20489;-64
2022/09/05 04:45:50;;;;;;;9.63;8.25;;;16.10;99.90;;;;;;5045099;28;20682;-67
2022/09/05 04:48:23;;;;;;;8.85;8.05;;;16.10;99.90;;;;;;5033463;28;20409;-66
2022/09/05 04:51:06;;;;;;;10.55;8.70;;;16.00;99.90;;;;;;5031662;28;20064;-66
2022/09/05 04:54:00;;;;;;;8.70;7.90;;;16.10;99.90;;;;;;5045392;28;20122;-66
2022/09/05 04:56:33;;;;;;;9.98;8.75;;;16.00;99.90;;;;;;5027999;28;20071;-66
2022/09/05 04:59:26;;;;;;;9.57;8.63;;;16.00;99.90;;;;;;5037275;28;20056;-66
2022/09/05 05:02:03;;;;;;;9.43;8.52;;;16.00;99.90;;;;;;5035925;28;20597;-66
2022/09/05 05:04:30;;;;;;;9.25;8.45;;;16.00;99.90;;;;;;5035564;28;20045;-66
2022/09/05 05:07:32;;;;;;;9.48;8.60;;;16.00;99.90;;;;;;5024452;28;20069;-66
2022/09/05 05:10:01;;;;;;;9.25;8.35;;;16.00;99.90;;;;;;5033920;28;20056;-60
2022/09/05 05:12:44;;;;;;;8.80;7.93;;;16.00;99.90;;;;;;5036555;28;20052;-60
2022/09/05 05:15:17;;;;;;;8.60;7.80;;;15.90;99.90;;;;;;5042340;28;20052;-60
2022/09/05 05:17:57;;;;;;;9.82;8.73;;;15.90;99.90;;;;;;5053154;28;20683;-61
2022/09/05 05:20:42;;;;;;;9.68;8.85;;;15.90;99.90;;;;;;5040313;28;20052;-60
2022/09/05 05:23:14;;;;;;;9.20;8.25;;;15.90;99.90;;;;;;5037638;28;20515;-67
2022/09/05 05:25:48;;;;;;;9.90;9.00;;;15.90;99.90;;;;;;5039720;28;20051;-67
2022/09/05 05:28:38;;;;;;;9.00;8.10;;;16.00;99.90;;;;;;5033687;28;20748;-67
2022/09/05 05:31:33;;;;;;;8.82;7.85;;;16.00;99.90;;;;;;5037111;28;20052;-66
2022/09/05 05:34:02;;;;;;;9.73;8.73;;;16.00;99.90;;;;;;5041780;28;20523;-67
2022/09/05 05:36:45;;;;;;;10.32;8.82;;;16.10;99.90;;;;;;5043803;28;20068;-61
2022/09/05 05:39:24;;;;;;;9.73;8.23;;;16.10;99.90;;;;;;5029423;28;20049;-61
2022/09/05 05:41:53;;;;;;;10.13;8.57;;;16.10;99.90;;;;;;5040835;28;20373;-61
2022/09/05 05:44:25;;;;;;;9.27;8.43;;;16.20;99.90;;;;;;5038164;28;20047;-61
2022/09/05 05:47:19;;;;;;;10.18;8.48;;;16.30;99.90;;;;;;5019689;28;20064;-61
2022/09/05 05:49:51;;;;;;;10.68;8.02;;;16.40;99.90;;;;;;5047202;28;20144;-59
2022/09/05 05:52:51;;;;;;;8.95;8.05;;;16.40;99.90;;;;;;5031242;28;20128;-61
2022/09/05 05:55:39;;;;;;;12.50;8.38;;;16.60;99.90;;;;;;5037824;28;20045;-61
2022/09/05 05:58:27;;;;;;;9.23;8.30;;;16.60;99.90;;;;;;5042568;28;20166;-66
2022/09/05 06:01:17;;;;;;;8.82;7.93;;;16.70;99.90;;;;;;5016602;28;20362;-67
2022/09/05 06:03:52;;;;;;;10.05;8.20;;;16.80;99.90;;;;;;5041901;28;20539;-61
2022/09/05 06:06:27;;;;;;;8.60;7.72;;;16.80;99.90;;;;;;5052731;28;20598;-66
2022/09/05 06:09:37;;;;;;;13.40;9.43;;;16.90;99.90;;;;;;5042444;28;20055;-67
2022/09/05 06:12:22;;;;;;;8.25;7.50;;;17.00;99.90;;;;;;4990838;28;20460;-67
2022/09/05 06:15:24;;;;;;;8.68;7.88;;;17.20;99.90;;;;;;5056157;28;20072;-61
2022/09/05 06:18:00;;;;;;;8.55;7.47;;;17.40;99.90;;;;;;5018727;28;20124;-61
2022/09/05 06:20:59;;;;;;;13.50;12.30;;;17.60;99.90;;;;;;5023541;28;20052;-61
2022/09/05 06:23:44;;;;;;;9.38;8.40;;;17.80;99.90;;;;;;5036623;28;20103;-66
2022/09/05 06:26:27;;;;;;;11.73;8.80;;;18.00;99.90;;;;;;5024814;28;20068;-66
2022/09/05 06:29:22;;;;;;;9.85;7.53;;;18.10;99.90;;;;;;5057614;28;20051;-66
2022/09/05 06:32:10;;;;;;;12.75;11.43;;;18.20;99.90;;;;;;5038482;28;20411;-66
2022/09/05 06:34:54;;;;;;;7.93;7.22;;;18.50;99.90;;;;;;5030338;28;20391;-66
2022/09/05 06:38:00;;;;;;;8.35;6.57;;;18.70;99.90;;;;;;5037255;28;20079;-67
2022/09/05 06:40:50;;;;;;;7.60;6.55;;;18.90;99.90;;;;;;5042558;28;20111;-66
2022/09/05 06:43:43;;;;;;;7.28;6.53;;;19.20;99.90;;;;;;5033072;28;20044;-64
2022/09/05 07:00:47;;;;;;;8.30;6.07;;;20.40;99.90;;;;;;5038993;28;19969;-63
2022/09/05 07:03:29;;;;;;;7.60;5.97;;;20.80;99.90;;;;;;5036493;28;20052;-63
2022/09/05 07:06:04;;;;;;;;;;;21.00;99.90;;;;;;5051991;28;20435;-59
2022/09/05 07:09:11;;;;;;;6.72;6.10;;;21.20;99.90;;;;;;5048376;28;19925;-60
2022/09/05 07:12:04;;;;;;;6.70;6.00;;;21.50;99.90;;;;;;5012814;28;20041;-60
2022/09/05 07:14:39;;;;;;;5.97;5.32;;;21.80;99.90;;;;;;4970419;28;20697;-65
2022/09/05 07:17:34;;;;;;;7.22;5.63;;;22.10;99.90;;;;;;5039473;28;20125;-66
2022/09/05 07:20:12;;;;;;;7.07;5.60;;;22.30;99.90;;;;;;5029962;28;20053;-61
2022/09/05 07:23:16;;;;;;;6.55;5.88;;;22.50;99.90;;;;;;5030127;28;20136;-62
2022/09/05 07:25:48;;;;;;;6.72;6.07;;;22.50;99.90;;;;;;5029356;28;20101;-66
2022/09/05 07:28:15;;;;;;;9.73;5.78;;;22.70;99.90;;;;;;5038014;28;20051;-66
2022/09/05 07:31:04;;;;;;;6.88;5.75;;;23.10;99.90;;;;;;5000761;28;20061;-62
2022/09/05 07:33:33;;;;;;;7.40;5.22;;;23.40;99.00;;;;;;5036793;28;20037;-62
2022/09/05 07:36:14;;;;;;;9.52;5.55;;;23.80;98.70;;;;;;5050390;28;20602;-62
2022/09/05 07:38:42;;;;;;;;;;;24.10;97.60;;;;;;5048575;28;20585;-61
2022/09/05 07:41:22;;;;;;;7.47;5.95;;;24.30;96.40;;;;;;5031534;28;20342;-62
2022/09/05 07:43:54;;;;;;;8.15;6.68;;;24.70;97.00;;;;;;5015929;28;20055;-62
2022/09/05 07:46:27;;;;;;;8.38;5.20;;;24.60;95.70;;;;;;5032590;28;20402;-63
2022/09/05 07:49:06;;;;;;;7.72;6.10;;;25.10;95.20;;;;;;5035433;28;20461;-62
2022/09/05 07:51:39;;;;;;;9.23;6.88;;;25.50;93.70;;;;;;5035093;28;20049;-62
2022/09/05 07:54:25;;;;;;;9.70;6.32;;;25.60;93.00;;;;;;5034459;28;20482;-62
2022/09/05 07:56:54;;;;;;;7.32;5.07;;;25.90;92.80;;;;;;5033458;28;20045;-62
2022/09/05 07:59:23;;;;;;;7.53;5.53;;;26.40;92.30;;;;;;5043818;28;20041;-62
2022/09/05 08:01:52;;;;;;;8.98;6.78;;;26.40;92.10;;;;;;5032845;28;20551;-62
2022/09/05 08:04:25;;;;;;;7.15;5.18;;;26.80;90.50;;;;;;5020691;28;20453;-62
2022/09/05 08:06:53;;;;;;;9.48;5.40;;;26.90;90.20;;;;;;5033116;28;20452;-62
2022/09/05 08:09:30;;;;;;;7.18;4.57;;;27.40;89.80;;;;;;5019568;28;20048;-62
2022/09/05 08:12:10;;;;;;;8.90;6.07;;;27.40;88.50;;;;;;5041312;28;20040;-62
2022/09/05 08:14:54;;;;;;;6.43;4.78;;;27.80;87.00;;;;;;5049629;28;20131;-63
2022/09/05 08:17:23;;;;;;;7.07;4.88;;;27.90;83.90;;;;;;5037651;28;20079;-63
2022/09/05 08:20:13;;;;;;;8.43;4.25;;;27.90;83.90;;;;;;5046388;28;20119;-62
2022/09/05 08:22:53;;;;;;;7.72;4.55;;;28.00;83.50;;;;;;5045594;28;20493;-62
2022/09/05 08:25:35;;;;;;;9.00;6.22;;;28.30;81.90;;;;;;5037065;28;20126;-61
2022/09/05 08:28:09;;;;;;;9.15;7.35;;;28.60;81.00;;;;;;5034611;28;20048;-62
2022/09/05 08:30:43;;;;;;;12.57;9.63;;;28.80;81.20;;;;;;5041626;28;20482;-62
2022/09/05 08:33:19;;;;;;;9.07;7.50;;;29.30;78.90;;;;;;5015480;28;20536;-62
2022/09/05 08:35:48;;;;;;;9.68;4.93;;;29.50;76.90;;;;;;5052762;28;20041;-63
2022/09/05 08:38:18;;;;;;;6.97;3.95;;;29.50;77.20;;;;;;5035771;28;20043;-64
2022/09/05 08:41:12;;;;;;;6.32;3.65;;;29.40;75.80;;;;;;5036927;28;20049;-64
2022/09/05 08:43:57;;;;;;;8.45;4.15;;;29.50;74.60;;;;;;5044090;28;20045;-64
2022/09/05 08:46:33;;;;;;;7.72;3.65;;;29.10;75.80;;;;;;5025363;28;20049;-64
2022/09/05 08:49:24;;;;;;;6.82;3.45;;;29.10;76.00;;;;;;5036372;28;20056;-62
2022/09/05 08:52:15;;;;;;;6.47;4.50;;;29.60;75.40;;;;;;5033389;28;20195;-62
2022/09/05 08:54:55;;;;;;;10.02;6.32;;;29.60;73.10;;;;;;5044475;28;20124;-62
2022/09/05 08:57:44;;;;;;;4.78;4.13;;;29.80;73.30;;;;;;5046895;28;20105;-65
2022/09/05 09:00:14;;;;;;;6.07;4.00;;;30.30;71.80;;;;;;5033510;28;20803;-64
2022/09/05 09:03:33;;;;;;;4.63;3.97;;;30.40;70.30;;;;;;5048355;28;20049;-58
2022/09/05 09:06:07;;;;;;;6.47;3.75;;;30.50;68.80;;;;;;4983946;28;20083;-61
2022/09/05 09:08:54;;;;;;;6.38;4.05;;;30.60;69.20;;;;;;5035936;28;20056;-66
2022/09/05 09:11:33;;;;;;;6.40;3.42;;;30.90;68.40;;;;;;5033850;28;20049;-66
2022/09/05 09:14:24;;;;;;;15.73;14.27;;;31.30;69.40;;;;;;5029581;28;20496;-58
2022/09/05 09:17:00;;;;;;;4.78;3.45;;;31.80;66.60;;;;;;5018505;28;20119;-64
2022/09/05 09:19:48;;;;;;;4.93;3.30;;;31.70;65.70;;;;;;5028871;28;20392;-61
2022/09/05 09:22:38;;;;;;;6.45;3.47;;;32.10;64.70;;;;;;5050002;28;20848;-66
2022/09/05 09:25:07;;;;;;;7.05;3.35;;;32.30;63.30;;;;;;5033263;28;20053;-66
2022/09/05 09:27:59;;;;;;;5.63;3.00;;;32.40;63.40;;;;;;5052974;28;20048;-66
2022/09/05 09:30:28;;;;;;;5.32;3.15;;;32.70;61.80;;;;;;5017605;28;20085;-66
2022/09/05 09:33:01;;;;;;;6.20;3.45;;;32.70;61.60;;;;;;5029998;28;20060;-67
2022/09/05 09:35:46;;;;;;;5.05;2.90;;;32.70;61.10;;;;;;5032342;28;20818;-67
2022/09/05 09:38:12;;;;;;;4.78;3.50;;;32.90;60.70;;;;;;5035534;28;20041;-67
2022/09/05 09:40:52;;;;;;;7.90;4.32;;;33.10;59.90;;;;;;5031848;28;20570;-67
2022/09/05 09:43:29;;;;;;;5.47;3.77;;;33.20;59.00;;;;;;5036860;28;20348;-66
2022/09/05 09:46:17;;;;;;;5.70;3.30;;;33.60;58.80;;;;;;5040336;28;20416;-61
2022/09/05 09:49:06;;;;;;;7.95;2.92;;;33.90;58.80;;;;;;5042272;28;20237;-62
2022/09/05 09:52:26;;;;;;;8.18;2.97;;;34.10;57.80;;;;;;5037135;28;20055;-63
2022/09/05 09:55:22;;;;;;;3.75;2.97;;;34.00;56.40;;;;;;5000516;28;20045;-65
2022/09/05 09:58:13;;;;;;;4.55;2.85;;;34.30;56.00;;;;;;5045967;28;20274;-63
2022/09/05 10:00:57;;;;;;;12.50;10.88;;;34.40;54.70;;;;;;5054748;28;20061;-63
2022/09/05 10:03:37;;;;;;;5.80;2.90;;;34.60;54.30;;;;;;5062123;28;20124;-61
2022/09/05 10:06:15;;;;;;;4.20;2.60;;;34.80;53.50;;;;;;5035325;28;20037;-58
2022/09/05 10:09:20;;;;;;;6.20;2.60;;;34.80;53.20;;;;;;5026932;28;20318;-62
2022/09/05 10:12:24;;;;;;;4.82;2.60;;;34.80;53.20;;;;;;5059166;28;20531;-62
2022/09/05 10:14:59;;;;;;;4.25;2.75;;;34.60;53.00;;;;;;5040748;28;20062;-62
2022/09/05 10:17:42;;;;;;;3.58;2.17;;;35.40;52.80;;;;;;5041240;28;20055;-62
2022/09/05 10:20:26;;;;;;;3.92;2.92;;;35.00;51.50;;;;;;5043080;28;20041;-62
2022/09/05 10:23:21;;;;;;;7.38;4.93;;;34.60;51.20;;;;;;5048929;28;20045;-57
2022/09/05 10:26:15;;;;;;;3.78;2.70;;;34.30;51.50;;;;;;5033845;28;20052;-63
2022/09/05 10:29:05;;;;;;;3.60;2.30;;;34.50;52.30;;;;;;5021330;28;20052;-59
2022/09/05 10:31:55;;;;;;;6.10;2.90;;;34.80;51.70;;;;;;5031598;28;20414;-68
2022/09/05 10:35:04;;;;;;;4.38;3.28;;;35.30;51.00;;;;;;5012084;28;20079;-70
2022/09/05 10:37:43;;;;;;;5.80;3.55;;;34.90;50.30;;;;;;5041244;28;20129;-68
2022/09/05 10:40:17;;;;;;;3.80;2.55;;;36.00;51.00;;;;;;5035828;28;20041;-67
2022/09/05 10:43:12;;;;;;;4.55;2.60;;;35.90;49.70;;;;;;5033918;28;20056;-62
2022/09/05 10:45:55;;;;;;;4.03;2.75;;;35.70;49.80;;;;;;5024035;28;20044;-62
2022/09/05 10:48:24;;;;;;;4.95;2.80;;;35.80;49.40;;;;;;5015622;28;20063;-58
2022/09/05 10:51:04;;;;;;;10.30;4.67;;;36.20;49.50;;;;;;5032298;28;20049;-56
2022/09/05 10:53:54;;;;;;;5.15;2.92;;;36.20;48.70;;;;;;5032986;28;20280;-56
2022/09/05 10:56:28;;;;;;;4.33;2.60;;;36.30;47.40;;;;;;5036124;28;20300;-57
2022/09/05 10:59:00;;;;;;;5.75;2.38;;;36.60;47.70;;;;;;5040811;28;20049;-58
2022/09/05 11:01:38;;;;;;;4.10;2.35;;;36.20;47.60;;;;;;5033904;28;20055;-57
2022/09/05 11:04:12;;;;;;;4.20;2.47;;;36.10;48.40;;;;;;5026049;28;20049;-57
2022/09/05 11:06:41;;;;;;;3.80;3.08;;;35.90;46.50;;;;;;5030047;28;20049;-58
2022/09/05 11:09:16;;;;;;;6.95;3.67;;;36.10;46.90;;;;;;5020223;28;20307;-57
2022/09/05 11:11:47;;;;;;;5.45;2.10;;;36.40;47.60;;;;;;5029214;28;20049;-58
2022/09/05 11:14:43;;;;;;;5.25;2.20;;;36.50;46.10;;;;;;5034091;28;20041;-58
2022/09/05 11:17:18;;;;;;;3.20;1.88;;;36.70;46.00;;;;;;5024433;28;20393;-58
2022/09/05 11:20:02;;;;;;;3.25;2.35;;;37.00;46.80;;;;;;5035306;28;20087;-58
2022/09/05 11:22:35;;;;;;;5.57;2.70;;;37.00;45.50;;;;;;5034488;28;20399;-58
2022/09/05 11:25:09;;;;;;;2.03;1.38;;;36.70;45.00;;;;;;5033440;28;20130;-58
2022/09/05 11:27:48;;;;;;;3.90;1.60;;;36.60;44.50;;;;;;5036144;28;20079;-58
2022/09/05 11:30:23;;;;;;;4.70;1.45;;;36.50;44.00;;;;;;5011437;28;20053;-58
2022/09/05 11:33:14;;;;;;;3.88;2.25;;;36.80;44.70;;;;;;5032545;28;20110;-58
2022/09/05 11:36:01;;;;;;;4.75;1.88;;;36.40;44.40;;;;;;5012575;28;20040;-58
2022/09/05 11:39:05;;;;;;;4.18;2.00;;;35.20;44.50;;;;;;5027717;28;20080;-57
2022/09/05 11:42:02;;;;;;;8.10;4.18;;;34.50;47.10;;;;;;5034454;28;20526;-58
2022/09/05 11:44:40;;;;;;;3.38;1.83;;;35.10;46.40;;;;;;5032426;28;20124;-58
2022/09/05 11:47:15;;;;;;;6.38;2.00;;;35.60;45.30;;;;;;5048596;28;20049;-58
2022/09/05 11:49:53;;;;;;;4.70;2.40;;;36.40;43.80;;;;;;5047223;28;20046;-57
2022/09/05 11:52:56;;;;;;;3.13;1.65;;;36.60;43.60;;;;;;5018151;28;20052;-57
2022/09/05 11:55:47;;;;;;;2.55;2.03;;;36.40;42.70;;;;;;5045662;28;20541;-58
2022/09/05 11:58:26;;;;;;;2.83;1.40;;;36.10;44.00;;;;;;5046359;28;20045;-58
2022/09/05 12:01:30;;;;;;;2.80;1.60;;;36.50;42.60;;;;;;5037940;28;20048;-59
2022/09/05 12:04:07;;;;;;;10.73;7.93;;;35.90;42.70;;;;;;5030331;28;20436;-58
2022/09/05 12:07:10;;;;;;;3.33;1.70;;;35.10;43.70;;;;;;5053942;28;20055;-58
2022/09/05 12:10:21;;;;;;;6.63;2.83;;;35.10;44.70;;;;;;5032519;28;20131;-58
2022/09/05 12:12:59;;;;;;;3.75;1.77;;;35.10;44.50;;;;;;5017067;28;20057;-58
2022/09/05 12:15:33;;;;;;;4.35;2.22;;;36.00;44.30;;;;;;5030664;28;20503;-58
2022/09/05 12:18:12;;;;;;;4.78;1.80;;;35.20;43.80;;;;;;5013606;28;20482;-58
2022/09/05 12:21:13;;;;;;;5.05;2.35;;;34.60;45.00;;;;;;5028017;28;20159;-58
2022/09/05 12:23:48;;;;;;;5.60;2.10;;;34.50;45.50;;;;;;5044115;28;20063;-58
2022/09/05 12:26:31;;;;;;;3.42;2.13;;;34.50;45.70;;;;;;5029321;28;20040;-58
2022/09/05 12:29:18;;;;;;;3.17;2.30;;;34.30;45.20;;;;;;5030663;28;20107;-58
2022/09/05 12:31:58;;;;;;;4.13;2.10;;;34.80;45.40;;;;;;5016342;28;20053;-58
2022/09/05 12:34:52;;;;;;;3.80;1.60;;;35.40;44.10;;;;;;5025638;28;20587;-59
2022/09/05 12:37:24;;;;;;;8.38;5.70;;;36.00;45.70;;;;;;5027880;28;20043;-60
2022/09/05 12:40:08;;;;;;;2.38;1.70;;;36.80;43.90;;;;;;5048330;28;21064;-59
2022/09/05 12:42:55;;;;;;;7.32;3.58;;;36.40;43.20;;;;;;5030332;28;20075;-59
2022/09/05 12:45:49;;;;;;;3.70;1.70;;;36.80;42.80;;;;;;5026751;28;20049;-59
2022/09/05 12:48:34;;;;;;;2.25;1.50;;;37.40;41.90;;;;;;5035695;28;20071;-58
2022/09/05 12:51:07;;;;;;;3.85;1.52;;;37.30;41.40;;;;;;5044483;28;20040;-59
2022/09/05 12:53:51;;;;;;;3.33;1.40;;;36.50;42.20;;;;;;5033624;28;20045;-59
2022/09/05 12:56:28;;;;;;;4.70;2.30;;;35.80;42.60;;;;;;5036070;28;20047;-58
2022/09/05 12:58:55;;;;;;;3.22;1.70;;;35.00;43.70;;;;;;5034421;28;20042;-59
2022/09/05 13:01:33;;;;;;;3.22;1.90;;;34.20;44.80;;;;;;5035297;28;20602;-59
2022/09/05 13:04:05;;;;;;;3.60;1.92;;;33.70;45.40;;;;;;5031274;28;20087;-60
2022/09/05 13:06:45;;;;;;;3.78;2.22;;;33.30;45.90;;;;;;5035492;28;20045;-58
2022/09/05 13:09:21;;;;;;;2.45;1.80;;;32.90;46.50;;;;;;5050800;28;20546;-58
2022/09/05 13:12:02;;;;;;;4.00;2.10;;;32.20;46.40;;;;;;5047033;28;20053;-59
2022/09/05 13:14:52;;;;;;;5.45;1.95;;;32.70;47.00;;;;;;5036548;28;20043;-59
2022/09/05 13:17:38;;;;;;;4.22;2.00;;;33.30;46.80;;;;;;5015895;28;20152;-59
2022/09/05 13:20:21;;;;;;;5.15;4.05;;;34.50;46.20;;;;;;5032254;28;20213;-59
2022/09/05 13:22:52;;;;;;;4.07;1.88;;;35.00;45.30;;;;;;5028454;28;20047;-59
2022/09/05 13:25:23;;;;;;;2.42;1.50;;;35.70;45.00;;;;;;5033059;28;20053;-59
2022/09/05 13:27:57;;;;;;;9.20;8.30;;;35.90;44.00;;;;;;5053765;28;20111;-59
2022/09/05 13:30:25;;;;;;;2.42;1.77;;;35.80;43.40;;;;;;5019741;28;20159;-59
2022/09/05 13:32:58;;;;;;;4.13;1.80;;;36.30;43.00;;;;;;5049518;28;20108;-59
2022/09/05 13:35:36;;;;;;;7.18;1.85;;;36.70;42.70;;;;;;5044128;28;20084;-59
2022/09/05 13:38:14;;;;;;;4.72;3.97;;;36.50;41.40;;;;;;5030838;28;20052;-59
2022/09/05 13:40:47;;;;;;;9.45;2.65;;;36.80;41.90;;;;;;5004175;28;20056;-60
2022/09/05 13:43:25;;;;;;;2.40;1.70;;;36.60;42.00;;;;;;5038958;28;20398;-60
2022/09/05 13:46:18;;;;;;;3.50;1.83;;;35.60;42.00;;;;;;5034403;28;20049;-59
2022/09/05 13:49:35;;;;;;;3.78;1.73;;;35.10;42.90;;;;;;5033547;28;20044;-59
2022/09/05 13:52:33;;;;;;;3.33;2.10;;;36.00;43.70;;;;;;5032691;28;20045;-59
2022/09/05 13:55:17;;;;;;;4.15;1.80;;;36.60;42.30;;;;;;5046902;28;20049;-59
2022/09/05 13:57:49;;;;;;;3.30;2.75;;;36.70;41.70;;;;;;5031802;28;20056;-59
2022/09/05 14:00:17;;;;;;;4.05;3.65;;;37.00;41.00;;;;;;5047233;28;20492;-59
2022/09/05 14:03:07;;;;;;;21.50;19.52;;;37.20;41.00;;;;;;5033446;28;20065;-57
2022/09/05 14:05:57;;;;;;;4.72;4.15;;;37.50;41.50;;;;;;5035177;28;20068;-57
2022/09/05 14:08:32;;;;;;;8.63;7.35;;;37.60;40.80;;;;;;5036200;28;20053;-57
2022/09/05 14:11:39;;;;;;;37.80;34.35;;;37.50;40.50;;;;;;5007124;28;20041;-54
2022/09/05 14:14:29;;;;;;;4.47;2.28;;;37.60;40.30;;;;;;5010197;28;20045;-55
2022/09/05 14:17:20;;;;;;;8.20;7.50;;;37.50;40.80;;;;;;5045474;28;20052;-57
2022/09/05 14:22:58;;;;;;;8.80;3.35;;;36.60;40.80;;;;;;5048926;28;20045;-59
2022/09/05 14:25:28;;;;;;;3.33;1.92;;;35.80;41.60;;;;;;5036181;28;20077;-59
2022/09/05 14:27:59;;;;;;;5.45;2.40;;;35.30;42.20;;;;;;5031802;28;20491;-60
2022/09/05 14:30:50;;;;;;;4.80;2.80;;;35.00;42.80;;;;;;5046770;28;20520;-60